createdAt,value
2018-09-17T04:09:18.210Z,7.20
2018-09-17T04:19:20.698Z,9.03
2018-09-17T04:29:31.267Z,7.13
2018-09-17T04:39:35.876Z,7.30
2018-09-17T04:49:38.587Z,7.23
2018-09-17T04:59:41.199Z,7.50
2018-09-17T05:09:43.670Z,7.60
2018-09-17T05:19:48.232Z,7.33
2018-09-17T05:29:56.034Z,7.60
2018-09-17T05:39:58.492Z,7.90
2018-09-17T05:50:01.547Z,8.63
2018-09-17T06:00:17.748Z,8.50
2018-09-17T06:10:30.954Z,8.03
2018-09-17T06:20:35.535Z,9.67
2018-09-17T06:30:50.142Z,8.33
2018-09-17T06:40:54.847Z,10.30
2018-09-17T06:50:57.676Z,9.60
2018-09-17T07:01:08.879Z,10.20
2018-09-17T07:11:18.336Z,7.80
2018-09-17T07:21:21.167Z,8.30
2018-09-17T07:31:23.743Z,7.50
2018-09-17T07:41:38.563Z,8.80
2018-09-17T07:51:43.855Z,8.40
2018-09-17T08:02:00.530Z,7.07
2018-09-17T08:12:03.537Z,8.53
2018-09-17T08:22:11.082Z,7.40
2018-09-17T08:32:13.670Z,7.37
2018-09-17T08:42:18.548Z,8.93
2018-09-17T08:52:25.016Z,7.97
2018-09-17T09:02:36.411Z,8.67
2018-09-17T09:12:40.766Z,9.10
2018-09-17T09:22:48.887Z,10.77
2018-09-17T09:32:55.034Z,9.40
2018-09-17T09:42:57.520Z,12.30
2018-09-17T09:53:01.542Z,12.57
2018-09-17T10:03:09.669Z,9.70
2018-09-17T10:13:19.843Z,8.37
2018-09-17T10:23:33.712Z,8.97
2018-09-17T10:33:39.682Z,8.40
2018-09-17T10:43:47.506Z,7.47
2018-09-17T10:53:57.947Z,7.80
2018-09-17T11:04:00.465Z,8.03
2018-09-17T11:14:02.941Z,6.87
2018-09-17T11:24:07.833Z,6.57
2018-09-17T11:34:12.338Z,5.87
2018-09-17T11:44:18.786Z,5.93
2018-09-17T11:54:35.937Z,6.17
2018-09-17T12:05:17.928Z,6.83
2018-09-17T12:15:26.695Z,7.50
2018-09-17T12:25:29.252Z,6.10
2018-09-17T12:35:31.782Z,5.33
2018-09-17T12:45:36.933Z,6.57
2018-09-17T12:55:42.938Z,6.77
2018-09-17T13:05:47.977Z,5.17
2018-09-17T13:15:53.917Z,6.07
2018-09-17T13:25:58.479Z,5.50
2018-09-17T13:36:02.048Z,5.97
2018-09-17T13:46:04.574Z,6.40
2018-09-17T13:56:07.108Z,6.20
2018-09-17T14:06:09.655Z,5.70
2018-09-17T14:16:12.147Z,5.90
2018-09-17T14:26:19.990Z,6.10
2018-09-17T14:36:28.259Z,5.13
2018-09-17T14:46:32.856Z,4.93
2018-09-17T14:56:35.359Z,6.83
2018-09-17T15:06:58.729Z,7.97
2018-09-17T15:17:01.338Z,4.97
2018-09-17T15:37:39.392Z,4.57
2018-09-17T15:47:43.763Z,4.60
2018-09-17T15:57:46.538Z,6.87
2018-09-17T16:07:49.278Z,6.57
2018-09-17T16:17:56.799Z,6.20
2018-09-17T16:27:59.262Z,5.90
2018-09-17T16:38:01.860Z,6.47
2018-09-17T16:48:04.335Z,6.60
2018-09-17T16:58:07.515Z,6.43
2018-09-17T17:08:17.548Z,5.87
2018-09-17T17:18:21.608Z,6.50
2018-09-17T17:28:26.201Z,5.40
2018-09-17T17:38:47.391Z,5.63
2018-09-17T17:48:54.663Z,4.77
2018-09-17T17:58:57.335Z,4.80
2018-09-17T18:08:59.858Z,4.97
2018-09-17T18:19:15.724Z,5.27
2018-09-17T18:29:18.198Z,6.03
2018-09-17T18:39:24.412Z,6.13
2018-09-17T18:49:27.057Z,5.20
2018-09-17T18:59:30.980Z,6.27
2018-09-17T19:09:43.073Z,7.63
2018-09-17T19:19:46.719Z,6.73
2018-09-17T19:29:50.408Z,6.27
2018-09-17T19:40:09.983Z,5.43
2018-09-17T19:50:20.470Z,6.80
2018-09-17T20:00:27.870Z,7.00
2018-09-17T20:10:30.574Z,6.43
2018-09-17T20:20:34.327Z,7.10
2018-09-17T20:30:48.873Z,6.47
2018-09-17T20:40:53.712Z,6.90
2018-09-17T20:50:58.615Z,6.60
2018-09-17T21:01:03.555Z,6.20
2018-09-17T21:11:06.468Z,6.57
2018-09-17T21:21:13.934Z,7.50
2018-09-17T21:31:16.546Z,7.37
2018-09-17T21:41:39.040Z,6.87
2018-09-17T21:51:48.337Z,6.97
2018-09-17T22:01:55.092Z,6.53
2018-09-17T22:12:01.366Z,7.80
2018-09-17T22:22:23.370Z,7.83
2018-09-17T22:32:25.826Z,7.50
2018-09-17T22:42:28.279Z,7.40
2018-09-17T22:52:31.655Z,7.33
2018-09-17T23:02:36.244Z,7.83
2018-09-17T23:12:38.707Z,7.40
2018-09-17T23:22:41.191Z,7.20
2018-09-17T23:32:51.842Z,7.90
2018-09-17T23:42:54.323Z,7.53
2018-09-17T23:53:02.119Z,9.33
